Ana Sayfa
METAR-TAF:

METAR-TAF

Havaalanları :

Irene, Güney Afrika

Enlem: 25-54-36S, Boylam: 28-12-40E, yükseklik: 1523 m

Güncel hava durumu gözlemi

Rapor saat 05:48 UTC de 17 saat ve 55 dakika önce yapıldı.
Rüzgar güney/güneydoğudan 2 kt
Sıcaklık 16°C
Nem 48%
Basınç 1031 hPa
Görüş mesafesi 10 km veya daha fazla
1500 m altında bulut yok ve kümülonimbus yok

METAR: FAIR 210548Z 15002KT CAVOK 16/05 Q1031

Saat: 01:43 (23:43 UTC)


TAF: eksik

4.000'den fazla havaalanı için hava durumu gözlemleri ve tahminleri (METAR ve TAF raporları).

Kullanılabilir istasyonlar harita üzerinde sarı ve kırmızı noktalarla gösterilir.

İstasyonun adını görmek için fareyi noktanın üzerinde gezdirin.

Sonrasında hava gözlem ve tahminlerini görmek için tıklayın.

Haritayı değiştirmek için: yaklaştırmak için siyah artı işaretli yeşil düğmeye ve uzaklaştırmak için de eksi işaretli düğmeye hızla tıklayın; bitişik haritalar için yeşil okları kullanın.


METAR-TAF: